sensor_id;sensor_type;location;lat;lon;timestamp;P1;durP1;ratioP1;P2;durP2;ratioP2
32323;SDS011;25666;44.350;9.222;2023-01-06T00:00:07;8.73;;;3.75;;
32323;SDS011;25666;44.350;9.222;2023-01-06T00:02:33;11.35;;;3.30;;
32323;SDS011;25666;44.350;9.222;2023-01-06T00:04:59;13.82;;;3.80;;
32323;SDS011;25666;44.350;9.222;2023-01-06T00:07:24;15.63;;;3.38;;
32323;SDS011;25666;44.350;9.222;2023-01-06T00:09:50;10.02;;;3.40;;
32323;SDS011;25666;44.350;9.222;2023-01-06T00:12:15;11.52;;;3.53;;
32323;SDS011;25666;44.350;9.222;2023-01-06T00:14:41;16.20;;;3.40;;
32323;SDS011;25666;44.350;9.222;2023-01-06T00:17:08;13.00;;;3.72;;
32323;SDS011;25666;44.350;9.222;2023-01-06T00:19:34;7.20;;;3.75;;
32323;SDS011;25666;44.350;9.222;2023-01-06T00:22:00;13.65;;;3.45;;
32323;SDS011;25666;44.350;9.222;2023-01-06T00:24:25;13.15;;;3.45;;
32323;SDS011;25666;44.350;9.222;2023-01-06T00:26:51;4.97;;;3.53;;
32323;SDS011;25666;44.350;9.222;2023-01-06T00:29:16;6.40;;;3.45;;
32323;SDS011;25666;44.350;9.222;2023-01-06T00:31:43;9.50;;;3.00;;
32323;SDS011;25666;44.350;9.222;2023-01-06T00:34:08;11.73;;;2.88;;
32323;SDS011;25666;44.350;9.222;2023-01-06T00:36:35;8.82;;;3.00;;
32323;SDS011;25666;44.350;9.222;2023-01-06T00:39:01;9.57;;;3.30;;
32323;SDS011;25666;44.350;9.222;2023-01-06T00:41:26;15.25;;;2.95;;
32323;SDS011;25666;44.350;9.222;2023-01-06T00:44:24;11.52;;;2.50;;
32323;SDS011;25666;44.350;9.222;2023-01-06T00:46:49;10.45;;;2.30;;
32323;SDS011;25666;44.350;9.222;2023-01-06T00:49:15;10.05;;;2.53;;
32323;SDS011;25666;44.350;9.222;2023-01-06T00:51:41;9.35;;;2.47;;
32323;SDS011;25666;44.350;9.222;2023-01-06T00:54:09;9.45;;;2.50;;
32323;SDS011;25666;44.350;9.222;2023-01-06T00:56:40;13.80;;;3.28;;
32323;SDS011;25666;44.350;9.222;2023-01-06T00:59:11;10.25;;;3.22;;
32323;SDS011;25666;44.350;9.222;2023-01-06T01:01:38;10.75;;;3.58;;
32323;SDS011;25666;44.350;9.222;2023-01-06T01:04:04;18.85;;;3.33;;
32323;SDS011;25666;44.350;9.222;2023-01-06T01:06:30;14.10;;;2.90;;
32323;SDS011;25666;44.350;9.222;2023-01-06T01:08:57;14.05;;;3.22;;
32323;SDS011;25666;44.350;9.222;2023-01-06T01:11:24;18.90;;;3.25;;
32323;SDS011;25666;44.350;9.222;2023-01-06T01:14:09;21.40;;;3.65;;
32323;SDS011;25666;44.350;9.222;2023-01-06T01:16:36;7.90;;;2.72;;
32323;SDS011;25666;44.350;9.222;2023-01-06T01:19:02;4.63;;;2.95;;
32323;SDS011;25666;44.350;9.222;2023-01-06T01:21:28;13.68;;;3.00;;
32323;SDS011;25666;44.350;9.222;2023-01-06T01:23:54;12.32;;;3.85;;
32323;SDS011;25666;44.350;9.222;2023-01-06T01:26:19;12.50;;;3.25;;
32323;SDS011;25666;44.350;9.222;2023-01-06T01:28:45;9.95;;;3.03;;
32323;SDS011;25666;44.350;9.222;2023-01-06T01:31:11;8.38;;;2.92;;
32323;SDS011;25666;44.350;9.222;2023-01-06T01:33:37;10.55;;;2.40;;
32323;SDS011;25666;44.350;9.222;2023-01-06T01:36:11;16.90;;;2.33;;
32323;SDS011;25666;44.350;9.222;2023-01-06T01:38:38;12.40;;;2.20;;
32323;SDS011;25666;44.350;9.222;2023-01-06T01:41:03;8.30;;;2.33;;
32323;SDS011;25666;44.350;9.222;2023-01-06T01:46:10;7.68;;;2.25;;
32323;SDS011;25666;44.350;9.222;2023-01-06T01:48:38;10.52;;;2.53;;
32323;SDS011;25666;44.350;9.222;2023-01-06T01:51:05;8.75;;;2.75;;
32323;SDS011;25666;44.350;9.222;2023-01-06T01:53:36;14.88;;;3.47;;
32323;SDS011;25666;44.350;9.222;2023-01-06T01:56:06;7.22;;;2.72;;
32323;SDS011;25666;44.350;9.222;2023-01-06T01:58:38;7.63;;;2.72;;
32323;SDS011;25666;44.350;9.222;2023-01-06T02:01:09;6.10;;;2.63;;
32323;SDS011;25666;44.350;9.222;2023-01-06T02:03:36;8.00;;;2.15;;
32323;SDS011;25666;44.350;9.222;2023-01-06T02:06:05;16.80;;;2.92;;
32323;SDS011;25666;44.350;9.222;2023-01-06T02:11:28;8.05;;;2.30;;
32323;SDS011;25666;44.350;9.222;2023-01-06T02:14:10;8.50;;;2.13;;
32323;SDS011;25666;44.350;9.222;2023-01-06T02:33:20;7.90;;;2.05;;
32323;SDS011;25666;44.350;9.222;2023-01-06T02:46:15;6.00;;;1.88;;
32323;SDS011;25666;44.350;9.222;2023-01-06T02:51:47;4.93;;;1.60;;
32323;SDS011;25666;44.350;9.222;2023-01-06T02:54:42;5.50;;;1.90;;
32323;SDS011;25666;44.350;9.222;2023-01-06T02:57:20;7.15;;;1.80;;
32323;SDS011;25666;44.350;9.222;2023-01-06T03:03:01;7.75;;;3.30;;
32323;SDS011;25666;44.350;9.222;2023-01-06T03:05:33;9.40;;;2.42;;
32323;SDS011;25666;44.350;9.222;2023-01-06T03:08:03;12.90;;;2.03;;
32323;SDS011;25666;44.350;9.222;2023-01-06T03:10:32;2.70;;;1.50;;
32323;SDS011;25666;44.350;9.222;2023-01-06T03:13:08;4.95;;;2.45;;
32323;SDS011;25666;44.350;9.222;2023-01-06T03:15:36;15.30;;;1.88;;
32323;SDS011;25666;44.350;9.222;2023-01-06T03:18:02;3.95;;;1.52;;
32323;SDS011;25666;44.350;9.222;2023-01-06T03:20:28;9.95;;;2.10;;
32323;SDS011;25666;44.350;9.222;2023-01-06T03:22:54;5.65;;;2.15;;
32323;SDS011;25666;44.350;9.222;2023-01-06T03:25:20;8.45;;;2.10;;
32323;SDS011;25666;44.350;9.222;2023-01-06T03:27:47;8.63;;;2.17;;
32323;SDS011;25666;44.350;9.222;2023-01-06T03:30:13;7.78;;;1.90;;
32323;SDS011;25666;44.350;9.222;2023-01-06T03:40:53;4.18;;;1.75;;
32323;SDS011;25666;44.350;9.222;2023-01-06T03:46:23;8.65;;;1.60;;
32323;SDS011;25666;44.350;9.222;2023-01-06T03:48:59;7.35;;;1.73;;
32323;SDS011;25666;44.350;9.222;2023-01-06T03:54:17;5.78;;;2.38;;
32323;SDS011;25666;44.350;9.222;2023-01-06T03:59:32;13.50;;;2.80;;
32323;SDS011;25666;44.350;9.222;2023-01-06T04:02:02;8.88;;;1.67;;
32323;SDS011;25666;44.350;9.222;2023-01-06T04:04:30;4.25;;;1.98;;
32323;SDS011;25666;44.350;9.222;2023-01-06T04:06:56;4.85;;;2.10;;
32323;SDS011;25666;44.350;9.222;2023-01-06T04:09:22;7.25;;;1.98;;
32323;SDS011;25666;44.350;9.222;2023-01-06T04:11:48;10.23;;;2.75;;
32323;SDS011;25666;44.350;9.222;2023-01-06T04:14:36;9.35;;;2.10;;
32323;SDS011;25666;44.350;9.222;2023-01-06T04:17:02;6.05;;;1.75;;
32323;SDS011;25666;44.350;9.222;2023-01-06T04:19:27;16.75;;;2.78;;
32323;SDS011;25666;44.350;9.222;2023-01-06T04:21:53;8.38;;;2.08;;
32323;SDS011;25666;44.350;9.222;2023-01-06T04:24:19;8.80;;;2.58;;
32323;SDS011;25666;44.350;9.222;2023-01-06T04:26:45;10.30;;;2.13;;
32323;SDS011;25666;44.350;9.222;2023-01-06T04:29:11;4.93;;;1.60;;
32323;SDS011;25666;44.350;9.222;2023-01-06T04:31:37;9.13;;;2.00;;
32323;SDS011;25666;44.350;9.222;2023-01-06T04:34:02;12.82;;;1.85;;
32323;SDS011;25666;44.350;9.222;2023-01-06T04:36:29;6.47;;;2.00;;
32323;SDS011;25666;44.350;9.222;2023-01-06T04:38:55;6.97;;;1.77;;
32323;SDS011;25666;44.350;9.222;2023-01-06T04:41:21;1.95;;;1.30;;
32323;SDS011;25666;44.350;9.222;2023-01-06T04:43:47;7.68;;;2.30;;
32323;SDS011;25666;44.350;9.222;2023-01-06T04:46:13;13.10;;;2.05;;
32323;SDS011;25666;44.350;9.222;2023-01-06T04:48:38;10.52;;;2.05;;
32323;SDS011;25666;44.350;9.222;2023-01-06T04:51:05;9.50;;;1.95;;
32323;SDS011;25666;44.350;9.222;2023-01-06T04:53:36;5.75;;;1.60;;
32323;SDS011;25666;44.350;9.222;2023-01-06T04:56:04;5.88;;;1.60;;
32323;SDS011;25666;44.350;9.222;2023-01-06T04:58:32;6.97;;;1.95;;
32323;SDS011;25666;44.350;9.222;2023-01-06T05:00:59;4.03;;;1.80;;
32323;SDS011;25666;44.350;9.222;2023-01-06T05:03:26;6.75;;;1.92;;
32323;SDS011;25666;44.350;9.222;2023-01-06T05:05:51;8.07;;;1.70;;
32323;SDS011;25666;44.350;9.222;2023-01-06T05:08:17;12.68;;;1.92;;
32323;SDS011;25666;44.350;9.222;2023-01-06T05:10:42;8.43;;;2.70;;
32323;SDS011;25666;44.350;9.222;2023-01-06T05:13:08;8.07;;;2.58;;
32323;SDS011;25666;44.350;9.222;2023-01-06T05:15:33;11.50;;;2.20;;
32323;SDS011;25666;44.350;9.222;2023-01-06T05:17:59;6.70;;;1.90;;
32323;SDS011;25666;44.350;9.222;2023-01-06T05:20:24;3.72;;;1.73;;
32323;SDS011;25666;44.350;9.222;2023-01-06T05:22:50;7.03;;;2.35;;
32323;SDS011;25666;44.350;9.222;2023-01-06T05:25:15;10.82;;;2.58;;
32323;SDS011;25666;44.350;9.222;2023-01-06T05:27:41;4.82;;;1.88;;
32323;SDS011;25666;44.350;9.222;2023-01-06T05:30:06;10.15;;;1.98;;
32323;SDS011;25666;44.350;9.222;2023-01-06T05:32:32;6.78;;;1.63;;
32323;SDS011;25666;44.350;9.222;2023-01-06T05:34:58;16.65;;;3.00;;
32323;SDS011;25666;44.350;9.222;2023-01-06T05:37:23;5.43;;;2.15;;
32323;SDS011;25666;44.350;9.222;2023-01-06T05:39:49;6.03;;;2.05;;
32323;SDS011;25666;44.350;9.222;2023-01-06T05:42:15;7.53;;;2.47;;
32323;SDS011;25666;44.350;9.222;2023-01-06T05:44:41;10.98;;;2.28;;
32323;SDS011;25666;44.350;9.222;2023-01-06T05:47:07;11.95;;;2.15;;
32323;SDS011;25666;44.350;9.222;2023-01-06T05:49:32;6.50;;;2.47;;
32323;SDS011;25666;44.350;9.222;2023-01-06T05:51:58;5.43;;;1.90;;
32323;SDS011;25666;44.350;9.222;2023-01-06T05:54:23;11.07;;;2.55;;
32323;SDS011;25666;44.350;9.222;2023-01-06T05:56:49;7.30;;;2.20;;
32323;SDS011;25666;44.350;9.222;2023-01-06T05:59:14;7.72;;;1.83;;
32323;SDS011;25666;44.350;9.222;2023-01-06T06:01:40;13.70;;;2.17;;
32323;SDS011;25666;44.350;9.222;2023-01-06T06:04:05;11.88;;;1.60;;
32323;SDS011;25666;44.350;9.222;2023-01-06T06:06:31;7.43;;;2.58;;
32323;SDS011;25666;44.350;9.222;2023-01-06T06:08:57;16.67;;;3.22;;
32323;SDS011;25666;44.350;9.222;2023-01-06T06:11:23;6.20;;;1.80;;
32323;SDS011;25666;44.350;9.222;2023-01-06T06:13:52;8.52;;;2.20;;
32323;SDS011;25666;44.350;9.222;2023-01-06T06:16:20;13.57;;;2.50;;
32323;SDS011;25666;44.350;9.222;2023-01-06T06:18:49;9.13;;;3.53;;
32323;SDS011;25666;44.350;9.222;2023-01-06T06:21:17;10.18;;;3.90;;
32323;SDS011;25666;44.350;9.222;2023-01-06T06:23:48;12.93;;;5.10;;
32323;SDS011;25666;44.350;9.222;2023-01-06T06:26:14;11.80;;;4.85;;
32323;SDS011;25666;44.350;9.222;2023-01-06T06:28:40;15.32;;;4.00;;
32323;SDS011;25666;44.350;9.222;2023-01-06T06:31:17;9.38;;;4.63;;
32323;SDS011;25666;44.350;9.222;2023-01-06T06:33:44;16.40;;;5.10;;
32323;SDS011;25666;44.350;9.222;2023-01-06T06:36:10;16.02;;;6.63;;
32323;SDS011;25666;44.350;9.222;2023-01-06T06:38:40;16.75;;;5.97;;
32323;SDS011;25666;44.350;9.222;2023-01-06T06:41:06;23.85;;;8.50;;
32323;SDS011;25666;44.350;9.222;2023-01-06T06:43:32;13.07;;;5.93;;
32323;SDS011;25666;44.350;9.222;2023-01-06T06:45:57;14.30;;;6.22;;
32323;SDS011;25666;44.350;9.222;2023-01-06T06:48:23;17.08;;;6.68;;
32323;SDS011;25666;44.350;9.222;2023-01-06T06:50:59;31.08;;;8.77;;
32323;SDS011;25666;44.350;9.222;2023-01-06T06:53:26;24.25;;;7.38;;
32323;SDS011;25666;44.350;9.222;2023-01-06T06:55:52;12.90;;;6.35;;
32323;SDS011;25666;44.350;9.222;2023-01-06T06:58:18;19.63;;;7.85;;
32323;SDS011;25666;44.350;9.222;2023-01-06T07:00:44;22.38;;;8.73;;
32323;SDS011;25666;44.350;9.222;2023-01-06T07:03:09;21.73;;;8.05;;
32323;SDS011;25666;44.350;9.222;2023-01-06T07:05:35;16.90;;;6.95;;
32323;SDS011;25666;44.350;9.222;2023-01-06T07:08:01;21.48;;;7.03;;
32323;SDS011;25666;44.350;9.222;2023-01-06T07:10:26;21.65;;;6.20;;
32323;SDS011;25666;44.350;9.222;2023-01-06T07:12:52;24.88;;;9.30;;
32323;SDS011;25666;44.350;9.222;2023-01-06T07:15:17;31.02;;;8.98;;
32323;SDS011;25666;44.350;9.222;2023-01-06T07:17:43;22.65;;;6.97;;
32323;SDS011;25666;44.350;9.222;2023-01-06T07:20:08;19.90;;;7.53;;
32323;SDS011;25666;44.350;9.222;2023-01-06T07:22:38;17.83;;;6.95;;
32323;SDS011;25666;44.350;9.222;2023-01-06T07:25:05;19.55;;;8.40;;
32323;SDS011;25666;44.350;9.222;2023-01-06T07:27:31;19.83;;;8.35;;
32323;SDS011;25666;44.350;9.222;2023-01-06T07:29:57;23.90;;;8.73;;
32323;SDS011;25666;44.350;9.222;2023-01-06T07:32:23;21.50;;;9.70;;
32323;SDS011;25666;44.350;9.222;2023-01-06T07:34:48;17.60;;;8.88;;
32323;SDS011;25666;44.350;9.222;2023-01-06T07:37:14;23.70;;;9.63;;
32323;SDS011;25666;44.350;9.222;2023-01-06T07:39:39;25.25;;;8.10;;
32323;SDS011;25666;44.350;9.222;2023-01-06T07:42:08;27.40;;;9.43;;
32323;SDS011;25666;44.350;9.222;2023-01-06T07:44:34;16.05;;;6.25;;
32323;SDS011;25666;44.350;9.222;2023-01-06T07:47:00;24.35;;;6.85;;
32323;SDS011;25666;44.350;9.222;2023-01-06T07:49:26;21.52;;;7.40;;
32323;SDS011;25666;44.350;9.222;2023-01-06T07:51:51;15.77;;;6.30;;
32323;SDS011;25666;44.350;9.222;2023-01-06T07:54:17;15.02;;;6.03;;
32323;SDS011;25666;44.350;9.222;2023-01-06T07:56:43;20.90;;;5.72;;
32323;SDS011;25666;44.350;9.222;2023-01-06T07:59:08;19.75;;;5.28;;
32323;SDS011;25666;44.350;9.222;2023-01-06T08:01:34;8.98;;;5.13;;
32323;SDS011;25666;44.350;9.222;2023-01-06T08:04:00;15.50;;;5.97;;
32323;SDS011;25666;44.350;9.222;2023-01-06T08:06:26;15.68;;;5.78;;
32323;SDS011;25666;44.350;9.222;2023-01-06T08:08:51;16.77;;;7.45;;
32323;SDS011;25666;44.350;9.222;2023-01-06T08:11:17;17.92;;;6.28;;
32323;SDS011;25666;44.350;9.222;2023-01-06T08:13:43;19.42;;;8.48;;
32323;SDS011;25666;44.350;9.222;2023-01-06T08:16:09;23.48;;;8.75;;
32323;SDS011;25666;44.350;9.222;2023-01-06T08:18:35;24.90;;;8.90;;
32323;SDS011;25666;44.350;9.222;2023-01-06T08:21:02;23.30;;;8.30;;
32323;SDS011;25666;44.350;9.222;2023-01-06T08:23:29;20.17;;;8.90;;
32323;SDS011;25666;44.350;9.222;2023-01-06T08:26:02;24.40;;;7.85;;
32323;SDS011;25666;44.350;9.222;2023-01-06T08:28:39;20.33;;;8.25;;
32323;SDS011;25666;44.350;9.222;2023-01-06T08:31:13;17.92;;;6.50;;
32323;SDS011;25666;44.350;9.222;2023-01-06T08:33:40;36.50;;;7.15;;
32323;SDS011;25666;44.350;9.222;2023-01-06T08:36:06;25.65;;;7.85;;
32323;SDS011;25666;44.350;9.222;2023-01-06T08:38:36;19.52;;;8.40;;
32323;SDS011;25666;44.350;9.222;2023-01-06T08:41:02;24.50;;;10.27;;
32323;SDS011;25666;44.350;9.222;2023-01-06T08:43:28;20.80;;;8.70;;
32323;SDS011;25666;44.350;9.222;2023-01-06T08:45:57;27.23;;;9.52;;
32323;SDS011;25666;44.350;9.222;2023-01-06T08:48:24;27.90;;;12.48;;
32323;SDS011;25666;44.350;9.222;2023-01-06T08:50:50;29.73;;;12.10;;
32323;SDS011;25666;44.350;9.222;2023-01-06T08:53:16;12.85;;;5.28;;
32323;SDS011;25666;44.350;9.222;2023-01-06T08:55:42;16.30;;;5.38;;
32323;SDS011;25666;44.350;9.222;2023-01-06T08:58:08;10.52;;;4.88;;
32323;SDS011;25666;44.350;9.222;2023-01-06T09:00:39;16.83;;;5.50;;
32323;SDS011;25666;44.350;9.222;2023-01-06T09:03:06;19.08;;;6.05;;
32323;SDS011;25666;44.350;9.222;2023-01-06T09:05:34;16.15;;;6.15;;
32323;SDS011;25666;44.350;9.222;2023-01-06T09:08:03;12.63;;;5.10;;
32323;SDS011;25666;44.350;9.222;2023-01-06T09:26:27;10.65;;;5.32;;
32323;SDS011;25666;44.350;9.222;2023-01-06T09:31:31;15.13;;;5.57;;
32323;SDS011;25666;44.350;9.222;2023-01-06T09:33:57;16.05;;;5.13;;
32323;SDS011;25666;44.350;9.222;2023-01-06T09:36:22;12.95;;;5.30;;
32323;SDS011;25666;44.350;9.222;2023-01-06T09:38:48;11.45;;;6.22;;
32323;SDS011;25666;44.350;9.222;2023-01-06T09:46:42;11.75;;;6.38;;
32323;SDS011;25666;44.350;9.222;2023-01-06T09:52:02;15.80;;;5.85;;
32323;SDS011;25666;44.350;9.222;2023-01-06T09:54:35;19.05;;;5.80;;
32323;SDS011;25666;44.350;9.222;2023-01-06T09:57:06;13.85;;;4.28;;
32323;SDS011;25666;44.350;9.222;2023-01-06T09:59:51;11.45;;;3.20;;
32323;SDS011;25666;44.350;9.222;2023-01-06T10:02:31;12.25;;;3.70;;
32323;SDS011;25666;44.350;9.222;2023-01-06T10:05:01;13.05;;;3.80;;
32323;SDS011;25666;44.350;9.222;2023-01-06T10:07:45;4.97;;;2.70;;
32323;SDS011;25666;44.350;9.222;2023-01-06T10:13:02;8.15;;;2.60;;
32323;SDS011;25666;44.350;9.222;2023-01-06T10:15:55;8.50;;;2.58;;
32323;SDS011;25666;44.350;9.222;2023-01-06T10:22:10;3.60;;;1.90;;
32323;SDS011;25666;44.350;9.222;2023-01-06T10:29:59;5.35;;;2.00;;
32323;SDS011;25666;44.350;9.222;2023-01-06T10:32:28;5.55;;;2.15;;
32323;SDS011;25666;44.350;9.222;2023-01-06T10:34:57;5.28;;;1.83;;
32323;SDS011;25666;44.350;9.222;2023-01-06T10:37:25;5.32;;;2.70;;
32323;SDS011;25666;44.350;9.222;2023-01-06T10:42:44;6.20;;;2.05;;
32323;SDS011;25666;44.350;9.222;2023-01-06T10:45:25;5.35;;;1.42;;
32323;SDS011;25666;44.350;9.222;2023-01-06T10:48:03;5.88;;;1.60;;
32323;SDS011;25666;44.350;9.222;2023-01-06T10:50:32;4.43;;;1.88;;
32323;SDS011;25666;44.350;9.222;2023-01-06T10:52:59;9.65;;;2.53;;
32323;SDS011;25666;44.350;9.222;2023-01-06T10:57:50;4.35;;;2.00;;
32323;SDS011;25666;44.350;9.222;2023-01-06T11:00:21;2.90;;;1.77;;
32323;SDS011;25666;44.350;9.222;2023-01-06T11:02:49;7.40;;;2.58;;
32323;SDS011;25666;44.350;9.222;2023-01-06T11:05:26;6.50;;;2.53;;
32323;SDS011;25666;44.350;9.222;2023-01-06T11:08:09;6.57;;;2.78;;
32323;SDS011;25666;44.350;9.222;2023-01-06T11:13:22;6.10;;;2.15;;
32323;SDS011;25666;44.350;9.222;2023-01-06T11:15:51;7.60;;;2.28;;
32323;SDS011;25666;44.350;9.222;2023-01-06T11:18:20;6.95;;;2.45;;
32323;SDS011;25666;44.350;9.222;2023-01-06T11:21:05;7.15;;;2.70;;
32323;SDS011;25666;44.350;9.222;2023-01-06T11:23:33;7.75;;;2.00;;
32323;SDS011;25666;44.350;9.222;2023-01-06T11:26:10;6.70;;;2.20;;
32323;SDS011;25666;44.350;9.222;2023-01-06T11:28:43;3.87;;;2.13;;
32323;SDS011;25666;44.350;9.222;2023-01-06T11:33:49;5.28;;;2.03;;
32323;SDS011;25666;44.350;9.222;2023-01-06T11:36:21;7.38;;;2.83;;
32323;SDS011;25666;44.350;9.222;2023-01-06T11:39:02;5.10;;;2.58;;
32323;SDS011;25666;44.350;9.222;2023-01-06T11:41:38;9.82;;;2.53;;
32323;SDS011;25666;44.350;9.222;2023-01-06T11:44:08;5.65;;;2.80;;
32323;SDS011;25666;44.350;9.222;2023-01-06T11:46:35;5.05;;;2.42;;
32323;SDS011;25666;44.350;9.222;2023-01-06T11:49:03;9.50;;;3.33;;
32323;SDS011;25666;44.350;9.222;2023-01-06T11:54:22;7.07;;;2.75;;
32323;SDS011;25666;44.350;9.222;2023-01-06T12:05:55;6.53;;;2.95;;
32323;SDS011;25666;44.350;9.222;2023-01-06T12:08:37;9.10;;;3.42;;
32323;SDS011;25666;44.350;9.222;2023-01-06T12:11:13;8.43;;;2.83;;
32323;SDS011;25666;44.350;9.222;2023-01-06T12:13:43;9.65;;;2.97;;
32323;SDS011;25666;44.350;9.222;2023-01-06T12:16:13;10.05;;;3.40;;
32323;SDS011;25666;44.350;9.222;2023-01-06T12:18:47;8.13;;;3.33;;
32323;SDS011;25666;44.350;9.222;2023-01-06T12:21:14;7.90;;;3.20;;
32323;SDS011;25666;44.350;9.222;2023-01-06T12:23:46;10.43;;;3.35;;
32323;SDS011;25666;44.350;9.222;2023-01-06T12:26:15;11.18;;;3.20;;
32323;SDS011;25666;44.350;9.222;2023-01-06T12:28:45;6.05;;;3.13;;
32323;SDS011;25666;44.350;9.222;2023-01-06T12:36:19;11.75;;;3.35;;
32323;SDS011;25666;44.350;9.222;2023-01-06T12:41:32;8.40;;;3.13;;
32323;SDS011;25666;44.350;9.222;2023-01-06T12:52:21;7.82;;;3.63;;
32323;SDS011;25666;44.350;9.222;2023-01-06T12:54:55;11.95;;;3.58;;
32323;SDS011;25666;44.350;9.222;2023-01-06T12:57:32;6.68;;;3.10;;
32323;SDS011;25666;44.350;9.222;2023-01-06T13:00:15;6.90;;;4.63;;
32323;SDS011;25666;44.350;9.222;2023-01-06T13:10:46;9.95;;;3.40;;
32323;SDS011;25666;44.350;9.222;2023-01-06T13:13:28;6.78;;;2.50;;
32323;SDS011;25666;44.350;9.222;2023-01-06T13:16:04;8.85;;;3.45;;
32323;SDS011;25666;44.350;9.222;2023-01-06T13:18:45;6.78;;;2.90;;
32323;SDS011;25666;44.350;9.222;2023-01-06T13:21:31;8.75;;;2.88;;
32323;SDS011;25666;44.350;9.222;2023-01-06T13:26:50;8.20;;;2.95;;
32323;SDS011;25666;44.350;9.222;2023-01-06T13:29:36;7.50;;;2.72;;
32323;SDS011;25666;44.350;9.222;2023-01-06T13:32:23;11.55;;;3.88;;
32323;SDS011;25666;44.350;9.222;2023-01-06T13:40:26;23.57;;;4.53;;
32323;SDS011;25666;44.350;9.222;2023-01-06T13:42:57;22.52;;;3.88;;
32323;SDS011;25666;44.350;9.222;2023-01-06T13:45:31;6.63;;;3.17;;
32323;SDS011;25666;44.350;9.222;2023-01-06T13:48:00;9.95;;;3.00;;
32323;SDS011;25666;44.350;9.222;2023-01-06T13:50:36;10.45;;;3.20;;
32323;SDS011;25666;44.350;9.222;2023-01-06T13:53:02;10.60;;;4.28;;
32323;SDS011;25666;44.350;9.222;2023-01-06T13:55:33;7.03;;;2.95;;
32323;SDS011;25666;44.350;9.222;2023-01-06T14:03:39;9.15;;;2.80;;
32323;SDS011;25666;44.350;9.222;2023-01-06T14:06:10;7.05;;;3.20;;
32323;SDS011;25666;44.350;9.222;2023-01-06T14:08:55;13.55;;;3.00;;
32323;SDS011;25666;44.350;9.222;2023-01-06T14:11:29;5.95;;;3.20;;
32323;SDS011;25666;44.350;9.222;2023-01-06T14:13:59;7.35;;;3.03;;
32323;SDS011;25666;44.350;9.222;2023-01-06T14:19:16;11.13;;;3.40;;
32323;SDS011;25666;44.350;9.222;2023-01-06T14:21:45;6.40;;;2.70;;
32323;SDS011;25666;44.350;9.222;2023-01-06T14:24:31;8.07;;;2.80;;
32323;SDS011;25666;44.350;9.222;2023-01-06T14:26:58;6.22;;;3.08;;
32323;SDS011;25666;44.350;9.222;2023-01-06T14:37:16;6.88;;;3.42;;
32323;SDS011;25666;44.350;9.222;2023-01-06T14:39:49;10.60;;;3.80;;
32323;SDS011;25666;44.350;9.222;2023-01-06T14:42:28;6.43;;;2.92;;
32323;SDS011;25666;44.350;9.222;2023-01-06T14:44:59;7.95;;;2.65;;
32323;SDS011;25666;44.350;9.222;2023-01-06T14:47:33;6.82;;;3.58;;
32323;SDS011;25666;44.350;9.222;2023-01-06T14:52:41;10.30;;;3.33;;
32323;SDS011;25666;44.350;9.222;2023-01-06T14:55:14;9.13;;;2.90;;
32323;SDS011;25666;44.350;9.222;2023-01-06T14:57:43;10.18;;;3.20;;
32323;SDS011;25666;44.350;9.222;2023-01-06T15:10:46;12.32;;;2.97;;
32323;SDS011;25666;44.350;9.222;2023-01-06T15:15:53;9.90;;;2.97;;
32323;SDS011;25666;44.350;9.222;2023-01-06T15:18:25;13.00;;;3.22;;
32323;SDS011;25666;44.350;9.222;2023-01-06T15:20:51;9.13;;;3.50;;
32323;SDS011;25666;44.350;9.222;2023-01-06T15:23:19;6.40;;;3.40;;
32323;SDS011;25666;44.350;9.222;2023-01-06T15:25:49;8.38;;;3.38;;
32323;SDS011;25666;44.350;9.222;2023-01-06T15:30:49;10.90;;;3.97;;
32323;SDS011;25666;44.350;9.222;2023-01-06T15:33:14;10.18;;;3.85;;
32323;SDS011;25666;44.350;9.222;2023-01-06T15:35:41;11.15;;;4.25;;
32323;SDS011;25666;44.350;9.222;2023-01-06T15:38:26;12.23;;;3.55;;
32323;SDS011;25666;44.350;9.222;2023-01-06T15:40:55;13.52;;;3.35;;
32323;SDS011;25666;44.350;9.222;2023-01-06T15:43:21;7.63;;;3.35;;
32323;SDS011;25666;44.350;9.222;2023-01-06T15:46:00;9.68;;;3.90;;
32323;SDS011;25666;44.350;9.222;2023-01-06T15:48:29;8.60;;;3.63;;
32323;SDS011;25666;44.350;9.222;2023-01-06T15:50:58;14.13;;;4.20;;
32323;SDS011;25666;44.350;9.222;2023-01-06T15:53:25;10.40;;;3.58;;
32323;SDS011;25666;44.350;9.222;2023-01-06T15:55:56;10.77;;;4.60;;
32323;SDS011;25666;44.350;9.222;2023-01-06T15:58:26;11.77;;;3.85;;
32323;SDS011;25666;44.350;9.222;2023-01-06T16:01:00;14.43;;;3.80;;
32323;SDS011;25666;44.350;9.222;2023-01-06T16:03:26;11.00;;;5.13;;
32323;SDS011;25666;44.350;9.222;2023-01-06T16:06:10;9.55;;;5.05;;
32323;SDS011;25666;44.350;9.222;2023-01-06T16:08:37;13.80;;;4.97;;
32323;SDS011;25666;44.350;9.222;2023-01-06T16:16:30;10.48;;;6.32;;
32323;SDS011;25666;44.350;9.222;2023-01-06T16:18:57;14.77;;;5.38;;
32323;SDS011;25666;44.350;9.222;2023-01-06T16:21:34;13.68;;;4.47;;
32323;SDS011;25666;44.350;9.222;2023-01-06T16:24:01;12.10;;;4.68;;
32323;SDS011;25666;44.350;9.222;2023-01-06T16:26:29;6.72;;;3.92;;
32323;SDS011;25666;44.350;9.222;2023-01-06T16:28:57;13.13;;;4.97;;
32323;SDS011;25666;44.350;9.222;2023-01-06T16:31:31;9.63;;;4.82;;
32323;SDS011;25666;44.350;9.222;2023-01-06T16:34:14;14.40;;;4.70;;
32323;SDS011;25666;44.350;9.222;2023-01-06T16:36:40;4.95;;;3.75;;
32323;SDS011;25666;44.350;9.222;2023-01-06T16:39:06;11.13;;;4.82;;
32323;SDS011;25666;44.350;9.222;2023-01-06T16:41:31;10.02;;;4.68;;
32323;SDS011;25666;44.350;9.222;2023-01-06T16:43:57;14.95;;;5.47;;
32323;SDS011;25666;44.350;9.222;2023-01-06T16:46:22;11.57;;;5.40;;
32323;SDS011;25666;44.350;9.222;2023-01-06T16:48:51;11.57;;;4.22;;
32323;SDS011;25666;44.350;9.222;2023-01-06T16:51:18;10.95;;;4.93;;
32323;SDS011;25666;44.350;9.222;2023-01-06T16:53:44;9.30;;;4.88;;
32323;SDS011;25666;44.350;9.222;2023-01-06T16:56:14;23.85;;;6.45;;
32323;SDS011;25666;44.350;9.222;2023-01-06T16:58:43;11.50;;;6.32;;
32323;SDS011;25666;44.350;9.222;2023-01-06T17:01:11;17.65;;;5.68;;
32323;SDS011;25666;44.350;9.222;2023-01-06T17:03:39;10.77;;;5.05;;
32323;SDS011;25666;44.350;9.222;2023-01-06T17:06:15;13.82;;;6.10;;
32323;SDS011;25666;44.350;9.222;2023-01-06T17:08:43;12.43;;;5.13;;
32323;SDS011;25666;44.350;9.222;2023-01-06T17:11:14;13.18;;;5.05;;
32323;SDS011;25666;44.350;9.222;2023-01-06T17:13:45;12.07;;;5.13;;
32323;SDS011;25666;44.350;9.222;2023-01-06T17:16:20;16.65;;;5.25;;
32323;SDS011;25666;44.350;9.222;2023-01-06T17:23:58;26.98;;;6.70;;
32323;SDS011;25666;44.350;9.222;2023-01-06T17:26:33;12.98;;;5.18;;
32323;SDS011;25666;44.350;9.222;2023-01-06T17:28:59;17.65;;;5.93;;
32323;SDS011;25666;44.350;9.222;2023-01-06T17:33:55;20.98;;;5.75;;
32323;SDS011;25666;44.350;9.222;2023-01-06T17:36:23;17.70;;;5.47;;
32323;SDS011;25666;44.350;9.222;2023-01-06T17:38:52;11.40;;;5.35;;
32323;SDS011;25666;44.350;9.222;2023-01-06T17:41:18;12.18;;;5.30;;
32323;SDS011;25666;44.350;9.222;2023-01-06T17:43:44;14.27;;;5.45;;
32323;SDS011;25666;44.350;9.222;2023-01-06T17:51:43;11.13;;;5.40;;
32323;SDS011;25666;44.350;9.222;2023-01-06T17:54:22;16.73;;;5.35;;
32323;SDS011;25666;44.350;9.222;2023-01-06T17:57:15;13.55;;;6.15;;
32323;SDS011;25666;44.350;9.222;2023-01-06T17:59:44;15.70;;;5.50;;
32323;SDS011;25666;44.350;9.222;2023-01-06T18:10:38;13.82;;;6.82;;
32323;SDS011;25666;44.350;9.222;2023-01-06T18:13:12;26.98;;;8.20;;
32323;SDS011;25666;44.350;9.222;2023-01-06T18:15:44;21.25;;;7.85;;
32323;SDS011;25666;44.350;9.222;2023-01-06T18:18:17;13.85;;;6.38;;
32323;SDS011;25666;44.350;9.222;2023-01-06T18:20:56;14.18;;;6.95;;
32323;SDS011;25666;44.350;9.222;2023-01-06T18:23:24;26.98;;;8.90;;